Tolono, Illinois
Current Conditions -  °F | °C
As of 9:53 AM on Friday 31 Oct 2014 (Local Time) from KCMI Reporting Station
Overcast Overcast  
Wind Chill: 25°   Ceiling: 7000
Heat Index: 37°   Visibility: 10mi
Dew Point: 27°   Wind: 29mph
Humidity: 67%   Direction: 320°NW
Pressure: 30.14"   Gusts: 35mph
Location:  39.99°N, 88.26°W
Report Text: KCMI 311453Z 32025G30KT 10SM OVC070 03/M03 A3014 RMK AO2 PK WND 32034/1418 SLP210 T00281028 51020 $
Loading
Personal Weather Stations






























Interactive Weather Map
Tropical Storm Tracking
New forecast layout! Learn more

10-Day Weather Forecast

Advertisements
Track Severe Weather on mobile